sensor_id;sensor_type;location;lat;lon;timestamp;P1;durP1;ratioP1;P2;durP2;ratioP2
10947;SDS011;5526;42.070;24.752;2022-09-03T00:00:38;12.98;;;11.85;;
10947;SDS011;5526;42.070;24.752;2022-09-03T00:03:11;13.48;;;12.20;;
10947;SDS011;5526;42.070;24.752;2022-09-03T00:05:45;12.98;;;11.77;;
10947;SDS011;5526;42.070;24.752;2022-09-03T00:08:16;12.80;;;11.80;;
10947;SDS011;5526;42.070;24.752;2022-09-03T00:10:48;12.85;;;11.73;;
10947;SDS011;5526;42.070;24.752;2022-09-03T00:13:23;12.50;;;11.48;;
10947;SDS011;5526;42.070;24.752;2022-09-03T00:15:53;14.10;;;12.80;;
10947;SDS011;5526;42.070;24.752;2022-09-03T00:18:24;12.80;;;11.80;;
10947;SDS011;5526;42.070;24.752;2022-09-03T00:20:56;14.00;;;12.73;;
10947;SDS011;5526;42.070;24.752;2022-09-03T00:23:32;14.30;;;13.02;;
10947;SDS011;5526;42.070;24.752;2022-09-03T00:26:13;13.05;;;11.93;;
10947;SDS011;5526;42.070;24.752;2022-09-03T00:28:50;12.85;;;11.90;;
10947;SDS011;5526;42.070;24.752;2022-09-03T00:31:24;13.23;;;12.05;;
10947;SDS011;5526;42.070;24.752;2022-09-03T00:33:55;12.93;;;12.00;;
10947;SDS011;5526;42.070;24.752;2022-09-03T00:36:26;13.13;;;12.02;;
10947;SDS011;5526;42.070;24.752;2022-09-03T00:38:59;12.85;;;11.82;;
10947;SDS011;5526;42.070;24.752;2022-09-03T00:41:29;12.40;;;11.45;;
10947;SDS011;5526;42.070;24.752;2022-09-03T00:44:13;12.75;;;11.65;;
10947;SDS011;5526;42.070;24.752;2022-09-03T00:46:58;14.30;;;13.00;;
10947;SDS011;5526;42.070;24.752;2022-09-03T00:49:33;13.35;;;12.30;;
10947;SDS011;5526;42.070;24.752;2022-09-03T00:52:12;13.77;;;12.48;;
10947;SDS011;5526;42.070;24.752;2022-09-03T00:54:50;14.93;;;13.63;;
10947;SDS011;5526;42.070;24.752;2022-09-03T00:57:29;14.77;;;13.38;;
10947;SDS011;5526;42.070;24.752;2022-09-03T01:00:10;17.38;;;15.75;;
10947;SDS011;5526;42.070;24.752;2022-09-03T01:02:43;16.73;;;15.38;;
10947;SDS011;5526;42.070;24.752;2022-09-03T01:05:22;23.48;;;21.30;;
10947;SDS011;5526;42.070;24.752;2022-09-03T01:08:04;23.40;;;21.30;;
10947;SDS011;5526;42.070;24.752;2022-09-03T01:10:42;14.77;;;13.48;;
10947;SDS011;5526;42.070;24.752;2022-09-03T01:13:19;15.98;;;14.57;;
10947;SDS011;5526;42.070;24.752;2022-09-03T01:15:55;16.98;;;15.43;;
10947;SDS011;5526;42.070;24.752;2022-09-03T01:18:33;15.63;;;14.30;;
10947;SDS011;5526;42.070;24.752;2022-09-03T01:21:21;18.75;;;17.05;;
10947;SDS011;5526;42.070;24.752;2022-09-03T01:27:02;14.23;;;12.82;;
10947;SDS011;5526;42.070;24.752;2022-09-03T01:29:45;11.68;;;10.77;;
10947;SDS011;5526;42.070;24.752;2022-09-03T01:32:19;12.02;;;10.82;;
10947;SDS011;5526;42.070;24.752;2022-09-03T01:34:56;10.65;;;9.85;;
10947;SDS011;5526;42.070;24.752;2022-09-03T01:37:31;10.40;;;9.60;;
10947;SDS011;5526;42.070;24.752;2022-09-03T01:40:09;11.95;;;11.05;;
10947;SDS011;5526;42.070;24.752;2022-09-03T01:42:46;13.20;;;12.10;;
10947;SDS011;5526;42.070;24.752;2022-09-03T01:45:32;13.93;;;12.75;;
10947;SDS011;5526;42.070;24.752;2022-09-03T01:48:13;13.27;;;12.15;;
10947;SDS011;5526;42.070;24.752;2022-09-03T01:50:49;12.27;;;11.18;;
10947;SDS011;5526;42.070;24.752;2022-09-03T01:53:33;17.02;;;15.80;;
10947;SDS011;5526;42.070;24.752;2022-09-03T01:56:15;15.00;;;13.93;;
10947;SDS011;5526;42.070;24.752;2022-09-03T01:58:55;11.57;;;10.73;;
10947;SDS011;5526;42.070;24.752;2022-09-03T02:01:30;12.65;;;11.55;;
10947;SDS011;5526;42.070;24.752;2022-09-03T02:04:11;11.88;;;11.07;;
10947;SDS011;5526;42.070;24.752;2022-09-03T02:06:42;11.90;;;10.98;;
10947;SDS011;5526;42.070;24.752;2022-09-03T02:09:10;11.32;;;10.52;;
10947;SDS011;5526;42.070;24.752;2022-09-03T02:11:38;10.15;;;9.27;;
10947;SDS011;5526;42.070;24.752;2022-09-03T02:14:05;9.73;;;8.98;;
10947;SDS011;5526;42.070;24.752;2022-09-03T02:16:34;8.90;;;8.30;;
10947;SDS011;5526;42.070;24.752;2022-09-03T02:19:02;8.70;;;8.02;;
10947;SDS011;5526;42.070;24.752;2022-09-03T02:21:35;9.55;;;8.65;;
10947;SDS011;5526;42.070;24.752;2022-09-03T02:24:06;10.15;;;9.25;;
10947;SDS011;5526;42.070;24.752;2022-09-03T02:26:33;11.60;;;10.60;;
10947;SDS011;5526;42.070;24.752;2022-09-03T02:29:02;10.60;;;9.80;;
10947;SDS011;5526;42.070;24.752;2022-09-03T02:31:29;9.98;;;9.07;;
10947;SDS011;5526;42.070;24.752;2022-09-03T02:33:58;10.60;;;9.70;;
10947;SDS011;5526;42.070;24.752;2022-09-03T02:36:26;13.52;;;12.32;;
10947;SDS011;5526;42.070;24.752;2022-09-03T02:38:56;14.02;;;12.93;;
10947;SDS011;5526;42.070;24.752;2022-09-03T02:41:23;10.23;;;9.52;;
10947;SDS011;5526;42.070;24.752;2022-09-03T02:43:53;10.02;;;9.10;;
10947;SDS011;5526;42.070;24.752;2022-09-03T02:46:24;10.43;;;9.40;;
10947;SDS011;5526;42.070;24.752;2022-09-03T02:48:59;9.95;;;9.15;;
10947;SDS011;5526;42.070;24.752;2022-09-03T02:51:26;10.45;;;9.55;;
10947;SDS011;5526;42.070;24.752;2022-09-03T02:53:56;25.58;;;23.27;;
10947;SDS011;5526;42.070;24.752;2022-09-03T02:56:23;18.20;;;16.52;;
10947;SDS011;5526;42.070;24.752;2022-09-03T02:58:52;16.92;;;15.43;;
10947;SDS011;5526;42.070;24.752;2022-09-03T03:01:19;20.75;;;19.05;;
10947;SDS011;5526;42.070;24.752;2022-09-03T03:03:46;12.13;;;11.18;;
10947;SDS011;5526;42.070;24.752;2022-09-03T03:06:14;11.82;;;10.63;;
10947;SDS011;5526;42.070;24.752;2022-09-03T03:08:45;15.70;;;14.30;;
10947;SDS011;5526;42.070;24.752;2022-09-03T03:11:12;14.73;;;13.48;;
10947;SDS011;5526;42.070;24.752;2022-09-03T03:13:42;14.70;;;13.50;;
10947;SDS011;5526;42.070;24.752;2022-09-03T03:16:10;12.38;;;11.48;;
10947;SDS011;5526;42.070;24.752;2022-09-03T03:18:38;12.07;;;11.00;;
10947;SDS011;5526;42.070;24.752;2022-09-03T03:21:06;19.30;;;17.58;;
10947;SDS011;5526;42.070;24.752;2022-09-03T03:23:36;15.88;;;14.48;;
10947;SDS011;5526;42.070;24.752;2022-09-03T03:26:04;26.23;;;24.02;;
10947;SDS011;5526;42.070;24.752;2022-09-03T03:28:32;14.88;;;13.57;;
10947;SDS011;5526;42.070;24.752;2022-09-03T03:31:04;13.55;;;12.35;;
10947;SDS011;5526;42.070;24.752;2022-09-03T03:33:31;13.88;;;12.85;;
10947;SDS011;5526;42.070;24.752;2022-09-03T03:36:02;12.32;;;11.43;;
10947;SDS011;5526;42.070;24.752;2022-09-03T03:38:30;19.05;;;16.95;;
10947;SDS011;5526;42.070;24.752;2022-09-03T03:40:58;15.45;;;14.02;;
10947;SDS011;5526;42.070;24.752;2022-09-03T03:43:25;33.50;;;30.50;;
10947;SDS011;5526;42.070;24.752;2022-09-03T03:45:56;29.13;;;26.60;;
10947;SDS011;5526;42.070;24.752;2022-09-03T03:48:23;21.02;;;19.25;;
10947;SDS011;5526;42.070;24.752;2022-09-03T03:50:50;19.30;;;17.65;;
10947;SDS011;5526;42.070;24.752;2022-09-03T03:53:17;13.55;;;12.25;;
10947;SDS011;5526;42.070;24.752;2022-09-03T03:55:52;21.33;;;19.55;;
10947;SDS011;5526;42.070;24.752;2022-09-03T03:58:22;11.90;;;10.90;;
10947;SDS011;5526;42.070;24.752;2022-09-03T04:00:49;11.57;;;10.57;;
10947;SDS011;5526;42.070;24.752;2022-09-03T04:03:16;10.80;;;9.80;;
10947;SDS011;5526;42.070;24.752;2022-09-03T04:05:51;10.48;;;9.55;;
10947;SDS011;5526;42.070;24.752;2022-09-03T04:08:20;10.27;;;9.48;;
10947;SDS011;5526;42.070;24.752;2022-09-03T04:10:47;10.90;;;9.77;;
10947;SDS011;5526;42.070;24.752;2022-09-03T04:13:14;11.20;;;10.23;;
10947;SDS011;5526;42.070;24.752;2022-09-03T04:15:42;10.82;;;9.70;;
10947;SDS011;5526;42.070;24.752;2022-09-03T04:18:09;11.18;;;10.35;;
10947;SDS011;5526;42.070;24.752;2022-09-03T04:20:36;12.18;;;11.23;;
10947;SDS011;5526;42.070;24.752;2022-09-03T04:23:03;11.00;;;10.07;;
10947;SDS011;5526;42.070;24.752;2022-09-03T04:25:31;11.60;;;10.65;;
10947;SDS011;5526;42.070;24.752;2022-09-03T04:27:58;9.73;;;8.93;;
10947;SDS011;5526;42.070;24.752;2022-09-03T04:30:27;9.60;;;8.85;;
10947;SDS011;5526;42.070;24.752;2022-09-03T04:32:55;10.65;;;9.65;;
10947;SDS011;5526;42.070;24.752;2022-09-03T04:35:23;11.10;;;10.10;;
10947;SDS011;5526;42.070;24.752;2022-09-03T04:37:53;11.57;;;10.45;;
10947;SDS011;5526;42.070;24.752;2022-09-03T04:40:21;11.30;;;10.18;;
10947;SDS011;5526;42.070;24.752;2022-09-03T04:42:48;10.75;;;9.88;;
10947;SDS011;5526;42.070;24.752;2022-09-03T04:45:15;11.18;;;10.15;;
10947;SDS011;5526;42.070;24.752;2022-09-03T04:47:43;10.43;;;9.40;;
10947;SDS011;5526;42.070;24.752;2022-09-03T04:50:13;10.30;;;9.40;;
10947;SDS011;5526;42.070;24.752;2022-09-03T04:52:40;13.90;;;12.50;;
10947;SDS011;5526;42.070;24.752;2022-09-03T04:55:07;14.15;;;12.85;;
10947;SDS011;5526;42.070;24.752;2022-09-03T04:57:35;13.68;;;12.57;;
10947;SDS011;5526;42.070;24.752;2022-09-03T05:00:03;17.08;;;15.40;;
10947;SDS011;5526;42.070;24.752;2022-09-03T05:02:34;11.60;;;10.65;;
10947;SDS011;5526;42.070;24.752;2022-09-03T05:05:01;13.25;;;11.90;;
10947;SDS011;5526;42.070;24.752;2022-09-03T05:07:30;11.57;;;10.65;;
10947;SDS011;5526;42.070;24.752;2022-09-03T05:10:03;11.45;;;10.38;;
10947;SDS011;5526;42.070;24.752;2022-09-03T05:12:31;13.18;;;11.90;;
10947;SDS011;5526;42.070;24.752;2022-09-03T05:14:58;10.32;;;9.52;;
10947;SDS011;5526;42.070;24.752;2022-09-03T05:17:25;12.65;;;11.45;;
10947;SDS011;5526;42.070;24.752;2022-09-03T05:19:52;10.15;;;9.15;;
10947;SDS011;5526;42.070;24.752;2022-09-03T05:22:19;10.80;;;9.80;;
10947;SDS011;5526;42.070;24.752;2022-09-03T05:24:48;11.52;;;10.52;;
10947;SDS011;5526;42.070;24.752;2022-09-03T05:27:15;11.00;;;9.98;;
10947;SDS011;5526;42.070;24.752;2022-09-03T05:29:42;10.52;;;9.50;;
10947;SDS011;5526;42.070;24.752;2022-09-03T05:32:09;10.48;;;9.52;;
10947;SDS011;5526;42.070;24.752;2022-09-03T05:34:37;10.50;;;9.55;;
10947;SDS011;5526;42.070;24.752;2022-09-03T05:37:04;12.27;;;9.95;;
10947;SDS011;5526;42.070;24.752;2022-09-03T05:39:31;11.07;;;10.10;;
10947;SDS011;5526;42.070;24.752;2022-09-03T05:41:59;11.55;;;10.45;;
10947;SDS011;5526;42.070;24.752;2022-09-03T05:44:26;11.80;;;10.68;;
10947;SDS011;5526;42.070;24.752;2022-09-03T05:46:54;10.57;;;9.68;;
10947;SDS011;5526;42.070;24.752;2022-09-03T05:49:21;10.80;;;9.90;;
10947;SDS011;5526;42.070;24.752;2022-09-03T05:51:47;11.85;;;10.77;;
10947;SDS011;5526;42.070;24.752;2022-09-03T05:54:14;9.52;;;8.73;;
10947;SDS011;5526;42.070;24.752;2022-09-03T05:56:41;11.05;;;9.95;;
10947;SDS011;5526;42.070;24.752;2022-09-03T05:59:10;9.90;;;9.10;;
10947;SDS011;5526;42.070;24.752;2022-09-03T06:01:38;11.10;;;10.10;;
10947;SDS011;5526;42.070;24.752;2022-09-03T06:04:07;10.07;;;9.20;;
10947;SDS011;5526;42.070;24.752;2022-09-03T06:06:36;10.27;;;9.30;;
10947;SDS011;5526;42.070;24.752;2022-09-03T06:09:06;13.75;;;12.43;;
10947;SDS011;5526;42.070;24.752;2022-09-03T06:11:35;10.52;;;9.55;;
10947;SDS011;5526;42.070;24.752;2022-09-03T06:14:04;11.50;;;10.52;;
10947;SDS011;5526;42.070;24.752;2022-09-03T06:16:34;12.40;;;9.48;;
10947;SDS011;5526;42.070;24.752;2022-09-03T06:19:02;9.65;;;8.60;;
10947;SDS011;5526;42.070;24.752;2022-09-03T06:21:33;8.95;;;8.02;;
10947;SDS011;5526;42.070;24.752;2022-09-03T06:24:01;9.18;;;8.27;;
10947;SDS011;5526;42.070;24.752;2022-09-03T06:26:28;9.95;;;9.15;;
10947;SDS011;5526;42.070;24.752;2022-09-03T06:28:55;10.45;;;9.55;;
10947;SDS011;5526;42.070;24.752;2022-09-03T06:31:24;10.27;;;9.40;;
10947;SDS011;5526;42.070;24.752;2022-09-03T06:33:53;9.73;;;8.93;;
10947;SDS011;5526;42.070;24.752;2022-09-03T06:36:20;9.65;;;8.70;;
10947;SDS011;5526;42.070;24.752;2022-09-03T06:38:50;10.32;;;9.18;;
10947;SDS011;5526;42.070;24.752;2022-09-03T06:41:19;10.23;;;9.43;;
10947;SDS011;5526;42.070;24.752;2022-09-03T06:43:50;9.23;;;8.52;;
10947;SDS011;5526;42.070;24.752;2022-09-03T06:46:18;9.30;;;8.52;;
10947;SDS011;5526;42.070;24.752;2022-09-03T06:48:46;9.45;;;8.73;;
10947;SDS011;5526;42.070;24.752;2022-09-03T06:51:17;9.70;;;8.82;;
10947;SDS011;5526;42.070;24.752;2022-09-03T06:53:46;9.40;;;8.60;;
10947;SDS011;5526;42.070;24.752;2022-09-03T06:56:14;9.52;;;8.80;;
10947;SDS011;5526;42.070;24.752;2022-09-03T06:58:44;9.85;;;9.15;;
10947;SDS011;5526;42.070;24.752;2022-09-03T07:01:14;9.43;;;8.52;;
10947;SDS011;5526;42.070;24.752;2022-09-03T07:03:43;9.70;;;8.80;;
10947;SDS011;5526;42.070;24.752;2022-09-03T07:06:12;9.25;;;8.45;;
10947;SDS011;5526;42.070;24.752;2022-09-03T07:08:42;9.05;;;8.15;;
10947;SDS011;5526;42.070;24.752;2022-09-03T07:11:11;10.38;;;9.60;;
10947;SDS011;5526;42.070;24.752;2022-09-03T07:13:40;9.65;;;8.85;;
10947;SDS011;5526;42.070;24.752;2022-09-03T07:16:08;9.27;;;8.48;;
10947;SDS011;5526;42.070;24.752;2022-09-03T07:18:37;14.10;;;12.98;;
10947;SDS011;5526;42.070;24.752;2022-09-03T07:21:05;8.57;;;7.88;;
10947;SDS011;5526;42.070;24.752;2022-09-03T07:23:34;9.63;;;8.82;;
10947;SDS011;5526;42.070;24.752;2022-09-03T07:26:04;9.57;;;8.52;;
10947;SDS011;5526;42.070;24.752;2022-09-03T07:28:33;8.85;;;8.05;;
10947;SDS011;5526;42.070;24.752;2022-09-03T07:31:03;8.65;;;7.95;;
10947;SDS011;5526;42.070;24.752;2022-09-03T07:33:32;8.52;;;7.93;;
10947;SDS011;5526;42.070;24.752;2022-09-03T07:36:02;9.60;;;8.70;;
10947;SDS011;5526;42.070;24.752;2022-09-03T07:38:31;9.15;;;8.27;;
10947;SDS011;5526;42.070;24.752;2022-09-03T07:40:59;9.43;;;8.55;;
10947;SDS011;5526;42.070;24.752;2022-09-03T07:43:28;9.95;;;9.15;;
10947;SDS011;5526;42.070;24.752;2022-09-03T07:45:58;9.63;;;8.77;;
10947;SDS011;5526;42.070;24.752;2022-09-03T07:48:25;9.77;;;8.98;;
10947;SDS011;5526;42.070;24.752;2022-09-03T07:50:56;9.55;;;8.68;;
10947;SDS011;5526;42.070;24.752;2022-09-03T07:53:25;10.05;;;8.70;;
10947;SDS011;5526;42.070;24.752;2022-09-03T07:55:52;8.80;;;8.00;;
10947;SDS011;5526;42.070;24.752;2022-09-03T07:58:21;9.27;;;8.48;;
10947;SDS011;5526;42.070;24.752;2022-09-03T08:00:50;9.60;;;8.90;;
10947;SDS011;5526;42.070;24.752;2022-09-03T08:03:18;11.40;;;10.05;;
10947;SDS011;5526;42.070;24.752;2022-09-03T08:05:45;9.02;;;8.18;;
10947;SDS011;5526;42.070;24.752;2022-09-03T08:08:11;10.07;;;8.82;;
10947;SDS011;5526;42.070;24.752;2022-09-03T08:10:39;8.60;;;7.85;;
10947;SDS011;5526;42.070;24.752;2022-09-03T08:13:06;8.88;;;8.13;;
10947;SDS011;5526;42.070;24.752;2022-09-03T08:15:35;9.52;;;8.82;;
10947;SDS011;5526;42.070;24.752;2022-09-03T08:18:06;10.82;;;9.95;;
10947;SDS011;5526;42.070;24.752;2022-09-03T08:20:33;8.43;;;7.80;;
10947;SDS011;5526;42.070;24.752;2022-09-03T08:23:00;8.40;;;7.63;;
10947;SDS011;5526;42.070;24.752;2022-09-03T08:25:28;9.40;;;8.77;;
10947;SDS011;5526;42.070;24.752;2022-09-03T08:27:57;10.68;;;8.30;;
10947;SDS011;5526;42.070;24.752;2022-09-03T08:30:24;7.78;;;7.18;;
10947;SDS011;5526;42.070;24.752;2022-09-03T08:32:52;12.15;;;11.13;;
10947;SDS011;5526;42.070;24.752;2022-09-03T08:35:21;9.05;;;8.35;;
10947;SDS011;5526;42.070;24.752;2022-09-03T08:37:48;8.45;;;7.75;;
10947;SDS011;5526;42.070;24.752;2022-09-03T08:40:18;9.52;;;8.63;;
10947;SDS011;5526;42.070;24.752;2022-09-03T08:42:55;11.18;;;10.38;;
10947;SDS011;5526;42.070;24.752;2022-09-03T08:45:32;7.75;;;7.22;;
10947;SDS011;5526;42.070;24.752;2022-09-03T08:48:03;8.32;;;7.72;;
10947;SDS011;5526;42.070;24.752;2022-09-03T08:50:35;8.48;;;7.78;;
10947;SDS011;5526;42.070;24.752;2022-09-03T08:53:07;8.85;;;8.23;;
10947;SDS011;5526;42.070;24.752;2022-09-03T08:55:41;10.60;;;9.60;;
10947;SDS011;5526;42.070;24.752;2022-09-03T08:58:16;8.23;;;7.63;;
10947;SDS011;5526;42.070;24.752;2022-09-03T09:00:48;8.07;;;7.47;;
10947;SDS011;5526;42.070;24.752;2022-09-03T09:06:23;9.20;;;8.52;;
10947;SDS011;5526;42.070;24.752;2022-09-03T09:09:02;8.80;;;8.10;;
10947;SDS011;5526;42.070;24.752;2022-09-03T09:11:39;7.95;;;7.25;;
10947;SDS011;5526;42.070;24.752;2022-09-03T09:14:15;8.18;;;7.57;;
10947;SDS011;5526;42.070;24.752;2022-09-03T09:16:50;9.52;;;8.68;;
10947;SDS011;5526;42.070;24.752;2022-09-03T09:19:30;8.70;;;7.93;;
10947;SDS011;5526;42.070;24.752;2022-09-03T09:22:08;9.57;;;8.73;;
10947;SDS011;5526;42.070;24.752;2022-09-03T09:24:38;8.45;;;7.75;;
10947;SDS011;5526;42.070;24.752;2022-09-03T09:27:09;9.40;;;8.68;;
10947;SDS011;5526;42.070;24.752;2022-09-03T09:29:41;9.73;;;9.02;;
10947;SDS011;5526;42.070;24.752;2022-09-03T09:32:12;9.40;;;8.70;;
10947;SDS011;5526;42.070;24.752;2022-09-03T09:34:41;8.77;;;8.05;;
10947;SDS011;5526;42.070;24.752;2022-09-03T09:37:10;9.52;;;8.82;;
10947;SDS011;5526;42.070;24.752;2022-09-03T09:39:38;9.30;;;8.50;;
10947;SDS011;5526;42.070;24.752;2022-09-03T09:42:07;9.50;;;8.63;;
10947;SDS011;5526;42.070;24.752;2022-09-03T09:44:37;8.73;;;8.02;;
10947;SDS011;5526;42.070;24.752;2022-09-03T09:47:07;8.93;;;8.25;;
10947;SDS011;5526;42.070;24.752;2022-09-03T09:49:50;9.40;;;8.55;;
10947;SDS011;5526;42.070;24.752;2022-09-03T09:52:20;9.38;;;8.63;;
10947;SDS011;5526;42.070;24.752;2022-09-03T09:54:50;10.20;;;9.20;;
10947;SDS011;5526;42.070;24.752;2022-09-03T09:57:21;9.15;;;8.35;;
10947;SDS011;5526;42.070;24.752;2022-09-03T09:59:49;9.73;;;8.95;;
10947;SDS011;5526;42.070;24.752;2022-09-03T10:02:30;8.93;;;8.32;;
10947;SDS011;5526;42.070;24.752;2022-09-03T10:05:11;8.93;;;8.23;;
10947;SDS011;5526;42.070;24.752;2022-09-03T10:07:42;8.55;;;7.85;;
10947;SDS011;5526;42.070;24.752;2022-09-03T10:10:19;8.60;;;8.00;;
10947;SDS011;5526;42.070;24.752;2022-09-03T10:12:47;8.75;;;8.05;;
10947;SDS011;5526;42.070;24.752;2022-09-03T10:15:24;8.90;;;8.10;;
10947;SDS011;5526;42.070;24.752;2022-09-03T10:17:59;10.18;;;9.30;;
10947;SDS011;5526;42.070;24.752;2022-09-03T10:20:33;9.57;;;8.70;;
10947;SDS011;5526;42.070;24.752;2022-09-03T10:23:14;9.50;;;8.70;;
10947;SDS011;5526;42.070;24.752;2022-09-03T10:25:48;11.95;;;10.95;;
10947;SDS011;5526;42.070;24.752;2022-09-03T10:28:25;10.52;;;9.57;;
10947;SDS011;5526;42.070;24.752;2022-09-03T10:31:02;8.85;;;8.25;;
10947;SDS011;5526;42.070;24.752;2022-09-03T10:33:46;9.35;;;8.55;;
10947;SDS011;5526;42.070;24.752;2022-09-03T10:36:21;8.27;;;7.53;;
10947;SDS011;5526;42.070;24.752;2022-09-03T10:38:53;9.80;;;9.00;;
10947;SDS011;5526;42.070;24.752;2022-09-03T10:41:33;9.45;;;8.75;;
10947;SDS011;5526;42.070;24.752;2022-09-03T10:44:15;8.77;;;7.93;;
10947;SDS011;5526;42.070;24.752;2022-09-03T10:46:55;9.13;;;8.27;;
10947;SDS011;5526;42.070;24.752;2022-09-03T10:49:31;9.15;;;8.45;;
10947;SDS011;5526;42.070;24.752;2022-09-03T10:52:12;8.10;;;7.40;;
10947;SDS011;5526;42.070;24.752;2022-09-03T10:54:52;9.05;;;8.35;;
10947;SDS011;5526;42.070;24.752;2022-09-03T10:57:32;10.60;;;9.75;;
10947;SDS011;5526;42.070;24.752;2022-09-03T11:00:07;9.05;;;8.45;;
10947;SDS011;5526;42.070;24.752;2022-09-03T11:05:47;8.55;;;7.85;;
10947;SDS011;5526;42.070;24.752;2022-09-03T11:08:22;8.65;;;7.97;;
10947;SDS011;5526;42.070;24.752;2022-09-03T11:10:56;8.57;;;7.97;;
10947;SDS011;5526;42.070;24.752;2022-09-03T11:13:31;9.20;;;8.40;;
10947;SDS011;5526;42.070;24.752;2022-09-03T11:16:01;9.18;;;8.30;;
10947;SDS011;5526;42.070;24.752;2022-09-03T11:18:32;8.98;;;8.23;;
10947;SDS011;5526;42.070;24.752;2022-09-03T11:21:04;7.97;;;7.22;;
10947;SDS011;5526;42.070;24.752;2022-09-03T11:23:36;8.75;;;8.15;;
10947;SDS011;5526;42.070;24.752;2022-09-03T11:26:09;8.55;;;7.85;;
10947;SDS011;5526;42.070;24.752;2022-09-03T11:28:40;7.75;;;7.20;;
10947;SDS011;5526;42.070;24.752;2022-09-03T11:31:17;7.72;;;7.13;;
10947;SDS011;5526;42.070;24.752;2022-09-03T11:33:50;8.13;;;7.50;;
10947;SDS011;5526;42.070;24.752;2022-09-03T11:36:28;9.68;;;8.98;;
10947;SDS011;5526;42.070;24.752;2022-09-03T11:38:56;9.27;;;8.65;;
10947;SDS011;5526;42.070;24.752;2022-09-03T11:41:26;9.65;;;8.95;;
10947;SDS011;5526;42.070;24.752;2022-09-03T11:44:09;8.23;;;7.45;;
10947;SDS011;5526;42.070;24.752;2022-09-03T11:46:51;8.70;;;8.07;;
10947;SDS011;5526;42.070;24.752;2022-09-03T11:49:24;7.78;;;7.07;;
10947;SDS011;5526;42.070;24.752;2022-09-03T11:51:55;8.38;;;7.88;;
10947;SDS011;5526;42.070;24.752;2022-09-03T11:54:25;8.40;;;7.70;;
10947;SDS011;5526;42.070;24.752;2022-09-03T11:57:06;8.10;;;7.40;;
10947;SDS011;5526;42.070;24.752;2022-09-03T11:59:38;8.18;;;7.57;;
10947;SDS011;5526;42.070;24.752;2022-09-03T12:02:11;8.00;;;7.45;;
10947;SDS011;5526;42.070;24.752;2022-09-03T12:04:48;7.32;;;6.72;;
10947;SDS011;5526;42.070;24.752;2022-09-03T12:07:27;6.57;;;5.97;;
10947;SDS011;5526;42.070;24.752;2022-09-03T12:10:12;7.63;;;7.13;;
10947;SDS011;5526;42.070;24.752;2022-09-03T12:12:50;6.35;;;5.85;;
10947;SDS011;5526;42.070;24.752;2022-09-03T12:15:36;6.63;;;6.03;;
10947;SDS011;5526;42.070;24.752;2022-09-03T12:18:17;6.63;;;6.10;;
10947;SDS011;5526;42.070;24.752;2022-09-03T12:20:59;5.90;;;5.50;;
10947;SDS011;5526;42.070;24.752;2022-09-03T12:23:28;6.13;;;5.72;;
10947;SDS011;5526;42.070;24.752;2022-09-03T12:25:56;5.97;;;5.55;;
10947;SDS011;5526;42.070;24.752;2022-09-03T12:28:29;6.13;;;5.63;;
10947;SDS011;5526;42.070;24.752;2022-09-03T12:31:04;5.57;;;5.18;;
10947;SDS011;5526;42.070;24.752;2022-09-03T12:33:46;5.70;;;5.30;;
10947;SDS011;5526;42.070;24.752;2022-09-03T12:36:14;5.70;;;5.07;;
10947;SDS011;5526;42.070;24.752;2022-09-03T12:38:41;6.82;;;6.22;;
10947;SDS011;5526;42.070;24.752;2022-09-03T12:43:54;4.45;;;4.10;;
10947;SDS011;5526;42.070;24.752;2022-09-03T12:46:24;4.63;;;4.25;;
10947;SDS011;5526;42.070;24.752;2022-09-03T12:48:53;4.35;;;4.05;;
10947;SDS011;5526;42.070;24.752;2022-09-03T12:51:20;3.90;;;3.58;;
10947;SDS011;5526;42.070;24.752;2022-09-03T12:53:47;5.70;;;3.97;;
10947;SDS011;5526;42.070;24.752;2022-09-03T12:56:17;3.90;;;3.70;;
10947;SDS011;5526;42.070;24.752;2022-09-03T12:58:47;3.97;;;3.67;;
10947;SDS011;5526;42.070;24.752;2022-09-03T13:01:19;3.42;;;3.17;;
10947;SDS011;5526;42.070;24.752;2022-09-03T13:03:51;3.47;;;3.28;;
10947;SDS011;5526;42.070;24.752;2022-09-03T13:06:22;3.80;;;3.50;;
10947;SDS011;5526;42.070;24.752;2022-09-03T13:08:52;3.50;;;3.30;;
10947;SDS011;5526;42.070;24.752;2022-09-03T13:11:22;3.60;;;3.30;;
10947;SDS011;5526;42.070;24.752;2022-09-03T13:13:52;3.65;;;3.45;;
10947;SDS011;5526;42.070;24.752;2022-09-03T13:16:33;5.15;;;3.00;;
10947;SDS011;5526;42.070;24.752;2022-09-03T13:19:21;3.40;;;3.10;;
10947;SDS011;5526;42.070;24.752;2022-09-03T13:21:58;3.28;;;2.97;;
10947;SDS011;5526;42.070;24.752;2022-09-03T13:24:45;3.50;;;3.30;;
10947;SDS011;5526;42.070;24.752;2022-09-03T13:27:25;2.75;;;2.55;;
10947;SDS011;5526;42.070;24.752;2022-09-03T13:30:03;2.50;;;2.40;;
10947;SDS011;5526;42.070;24.752;2022-09-03T13:32:38;2.15;;;2.05;;
10947;SDS011;5526;42.070;24.752;2022-09-03T13:35:16;2.55;;;2.45;;
10947;SDS011;5526;42.070;24.752;2022-09-03T13:37:51;1.75;;;1.73;;
10947;SDS011;5526;42.070;24.752;2022-09-03T13:40:30;1.75;;;1.65;;
10947;SDS011;5526;42.070;24.752;2022-09-03T13:43:02;1.98;;;1.80;;
10947;SDS011;5526;42.070;24.752;2022-09-03T13:45:40;1.90;;;1.80;;
10947;SDS011;5526;42.070;24.752;2022-09-03T13:48:12;1.90;;;1.80;;
10947;SDS011;5526;42.070;24.752;2022-09-03T13:51:03;2.13;;;2.03;;
10947;SDS011;5526;42.070;24.752;2022-09-03T13:53:47;2.10;;;2.00;;
10947;SDS011;5526;42.070;24.752;2022-09-03T13:56:33;2.05;;;1.77;;
10947;SDS011;5526;42.070;24.752;2022-09-03T13:59:11;2.33;;;2.10;;
10947;SDS011;5526;42.070;24.752;2022-09-03T14:01:57;2.00;;;1.90;;
10947;SDS011;5526;42.070;24.752;2022-09-03T14:04:42;2.75;;;1.90;;
10947;SDS011;5526;42.070;24.752;2022-09-03T14:07:14;2.05;;;1.83;;
10947;SDS011;5526;42.070;24.752;2022-09-03T14:09:53;1.55;;;1.42;;
10947;SDS011;5526;42.070;24.752;2022-09-03T14:12:38;2.55;;;1.88;;
10947;SDS011;5526;42.070;24.752;2022-09-03T14:15:15;2.35;;;1.63;;
10947;SDS011;5526;42.070;24.752;2022-09-03T14:17:47;1.90;;;1.80;;
10947;SDS011;5526;42.070;24.752;2022-09-03T14:20:24;1.83;;;1.70;;
10947;SDS011;5526;42.070;24.752;2022-09-03T14:22:55;1.67;;;1.52;;
10947;SDS011;5526;42.070;24.752;2022-09-03T14:25:28;1.50;;;1.40;;
10947;SDS011;5526;42.070;24.752;2022-09-03T14:28:11;1.20;;;1.20;;
10947;SDS011;5526;42.070;24.752;2022-09-03T14:30:41;1.40;;;1.30;;
10947;SDS011;5526;42.070;24.752;2022-09-03T14:33:15;1.30;;;1.20;;
10947;SDS011;5526;42.070;24.752;2022-09-03T14:35:54;1.40;;;1.33;;
10947;SDS011;5526;42.070;24.752;2022-09-03T14:38:42;1.88;;;1.77;;
10947;SDS011;5526;42.070;24.752;2022-09-03T14:41:33;1.75;;;1.65;;
10947;SDS011;5526;42.070;24.752;2022-09-03T14:44:25;2.03;;;1.92;;
10947;SDS011;5526;42.070;24.752;2022-09-03T14:47:05;2.20;;;2.10;;
10947;SDS011;5526;42.070;24.752;2022-09-03T14:49:44;2.53;;;2.00;;
10947;SDS011;5526;42.070;24.752;2022-09-03T14:52:28;2.65;;;2.50;;
10947;SDS011;5526;42.070;24.752;2022-09-03T14:55:12;2.90;;;2.42;;
10947;SDS011;5526;42.070;24.752;2022-09-03T14:57:53;2.38;;;2.28;;
10947;SDS011;5526;42.070;24.752;2022-09-03T15:00:41;2.95;;;2.67;;
10947;SDS011;5526;42.070;24.752;2022-09-03T15:03:32;2.42;;;2.33;;
10947;SDS011;5526;42.070;24.752;2022-09-03T15:06:18;2.83;;;2.72;;
10947;SDS011;5526;42.070;24.752;2022-09-03T15:08:58;2.80;;;2.60;;
10947;SDS011;5526;42.070;24.752;2022-09-03T15:11:48;2.50;;;2.40;;
10947;SDS011;5526;42.070;24.752;2022-09-03T15:14:22;2.85;;;2.75;;
10947;SDS011;5526;42.070;24.752;2022-09-03T15:16:55;2.63;;;2.42;;
10947;SDS011;5526;42.070;24.752;2022-09-03T15:19:37;2.78;;;2.58;;
10947;SDS011;5526;42.070;24.752;2022-09-03T15:22:17;3.08;;;2.75;;